• Join FlightAware (Why Join?)
  • Login
  • US Flag 
02:16AM EDT


 

Airport Tracker/Info


-or-


 

Live Flight TrackerFlight Track Log ✈ UCA3596 ✈ 12-Jan-2014 ✈ KBGM - KIAD

Flight Track Log - Related Links

Times and Time Zones

All times are in EST time to prevent confusion due to time zone crossing. See the UCA3596 flight status page for this flight to view local times or setup timezone preferences in your user account.

Time Position Orientation Groundspeed Altitude Reporting Facility
EST Latitude Longitude Course Direction KTS MPH feet Rate Location/Type
03:05PM 42.1603 -76.0442 214° Southwest 156 180 4,100  Level New York Center
03:06PM 42.1211 -76.0803 214° Southwest 167 192 5,400 1,320 Climbing New York Center
03:07PM 42.0797 -76.1189 215° Southwest 179 206 6,800 1,260 Climbing New York Center
03:08PM 42.0431 -76.1522 214° Southwest 179 206 8,000 1,200 Climbing New York Center
03:09PM 41.9939 -76.1789 202° Southwest 185 213 9,200 1,320 Climbing New York Center
03:10PM 41.8044 -76.1716 214° Southwest  Level Estimated
03:10PM 41.9403 -76.2136 206° Southwest 190 219 10,700  Level New York Center
03:11PM 41.8911 -76.2400 202° Southwest 195 224 12,100 1,020 Climbing New York Center
03:12PM 41.8397 -76.2719 205° Southwest 200 230 12,800 840 Climbing New York Center
03:13PM 41.7903 -76.3014 204° Southwest 205 236 13,800 600 Climbing New York Center
03:14PM 41.7242 -76.3403 204° Southwest 231 266 14,000 60 Climbing New York Center
03:15PM 41.6556 -76.3819 204° Southwest 259 298 14,000  Level New York Center
03:16PM 41.5869 -76.4206 203° Southwest 267 307 14,000  Level New York Center
03:17PM 41.5247 -76.4569 204° Southwest 267 307 14,000  Level New York Center
03:18PM 41.4564 -76.4953 203° Southwest 267 307 14,000  Level New York Center
03:19PM 41.3811 -76.5414 205° Southwest 267 307 14,000  Level New York Center
03:20PM 41.3125 -76.5825 204° Southwest 267 307 14,000  Level New York Center
03:21PM 41.2439 -76.6208 203° Southwest 267 307 14,000  Level New York Center
03:22PM 41.1839 -76.6569 204° Southwest 267 307 14,000  Level New York Center
03:23PM 41.1067 -76.7025 204° Southwest 267 307 14,000  Level New York Center
03:24PM 41.0378 -76.7433 204° Southwest 267 307 14,000  Level New York Center
03:25PM 40.9714 -76.7814 203° Southwest 267 307 14,000  Level New York Center
03:26PM 40.9025 -76.8222 204° Southwest 262 302 14,000  Level New York Center
03:27PM 40.8361 -76.8600 203° Southwest 262 302 14,000  Level New York Center
03:28PM 40.7656 -76.8950 201° Southwest 268 308 14,000  Level New York Center
03:29PM 40.6872 -76.9181 193° South 283 326 14,000  Level New York Center
03:30PM 40.6108 -76.9414 193° South 283 326 14,000  Level New York Center
03:31PM 40.5367 -76.9647 193° South 283 326 14,000  Level New York Center
03:32PM 40.4625 -76.9881 193° South 283 326 14,000 -480 Level New York Center
03:34PM 40.3333 -77.0333 195° South 280 322 12,800 -780 Descending Potomac TRACON
03:35PM 40.2500 -77.0500 189° South 277 319 11,900 -900 Descending Potomac TRACON
03:36PM 40.1833 -77.0667 191° South 264 304 11,100 -840 Descending Potomac TRACON
03:37PM 40.1167 -77.1000 201° Southwest 254 292 10,300 -840 Descending Potomac TRACON
03:38PM 40.0500 -77.1167 191° South 255 293 9,500 -480 Descending Potomac TRACON
03:40PM 39.9167 -77.1500 191° South 245 282 9,000 -180 Descending Potomac TRACON
03:41PM 39.8500 -77.1833 201° Southwest 233 268 9,000 -180 Level Potomac TRACON
03:42PM 39.7833 -77.2000 191° South 234 269 8,700 -480 Descending Potomac TRACON
03:43PM 39.7167 -77.2167 191° South 238 274 8,100 -360 Descending Potomac TRACON
03:44PM 39.7000 -77.3000 255° West 220 253 8,000 -60 Descending Potomac TRACON
03:45PM 39.6833 -77.3667 252° West 214 246 8,000 -300 Level Potomac TRACON
03:46PM 39.6333 -77.4167 218° Southwest 240 276 7,400 -720 Descending Potomac TRACON
03:47PM 39.5667 -77.4500 201° Southwest 242 278 6,600 -840 Descending Potomac TRACON
03:48PM 39.5000 -77.4167 159° South 276 318 5,800 -840 Descending Potomac TRACON
03:49PM 39.4333 -77.3833 159° South 271 312 5,100 -840 Descending Potomac TRACON
03:50PM 39.3667 -77.3667 169° South 246 283 4,200 -600 Descending Potomac TRACON
03:51PM 39.3000 -77.3667 180° South 232 267 4,000 -120 Descending Potomac TRACON
03:52PM 39.2333 -77.3667 180° South 225 259 4,000  Level Potomac TRACON
03:53PM 39.1833 -77.3667 180° South 233 268 4,000  Level Potomac TRACON
03:54PM 39.1167 -77.3500 169° South 238 274 4,000  Level Potomac TRACON
03:55PM 39.0500 -77.3500 180° South 235 270 4,000  Level Potomac TRACON
03:56PM 38.9667 -77.3500 180° South 243 280 4,000  Level Potomac TRACON
03:57PM 38.9000 -77.3500 180° South 240 276 4,000  Level Potomac TRACON
03:58PM 38.8333 -77.3500 180° South 233 268 4,000 -300 Level Potomac TRACON
03:59PM 38.7833 -77.3667 195° South 233 268 3,500 -540 Descending Potomac TRACON
04:00PM 38.7167 -77.3667 180° South 232 267 3,000 -600 Descending Potomac TRACON
04:01PM 38.7167 -77.4167 270° West 185 213 2,400 -540 Descending Potomac TRACON
04:02PM 38.7667 -77.4333 345° North 194 223 2,000 -240 Descending Potomac TRACON
04:03PM 38.8167 -77.4333 360° North 185 213 2,000 -240 Level Potomac TRACON
04:04PM 38.8667 -77.4333 360° North 169 194 1,600 -600 Descending Potomac TRACON
04:05PM 38.9000 -77.4333 360° North 127 146 800 -840 Descending Potomac TRACON